sensor_id;sensor_type;location;lat;lon;timestamp;temperature;humidity
18260;DHT22;9256;52.236;5.712;2023-05-29T00:00:03;10.40;99.90
18260;DHT22;9256;52.236;5.712;2023-05-29T00:02:32;10.20;99.90
18260;DHT22;9256;52.236;5.712;2023-05-29T00:04:59;10.20;99.90
18260;DHT22;9256;52.236;5.712;2023-05-29T00:07:28;10.20;99.90
18260;DHT22;9256;52.236;5.712;2023-05-29T00:09:55;10.10;99.90
18260;DHT22;9256;52.236;5.712;2023-05-29T00:12:24;10.00;99.90
18260;DHT22;9256;52.236;5.712;2023-05-29T00:14:50;10.00;99.90
18260;DHT22;9256;52.236;5.712;2023-05-29T00:17:17;10.00;99.90
18260;DHT22;9256;52.236;5.712;2023-05-29T00:19:46;9.90;99.90
18260;DHT22;9256;52.236;5.712;2023-05-29T00:22:13;9.80;99.90
18260;DHT22;9256;52.236;5.712;2023-05-29T00:24:40;9.90;99.90
18260;DHT22;9256;52.236;5.712;2023-05-29T00:27:07;10.00;99.90
18260;DHT22;9256;52.236;5.712;2023-05-29T00:29:35;9.90;99.90
18260;DHT22;9256;52.236;5.712;2023-05-29T00:32:03;9.90;99.90
18260;DHT22;9256;52.236;5.712;2023-05-29T00:34:31;9.80;99.90
18260;DHT22;9256;52.236;5.712;2023-05-29T00:36:58;9.70;99.90
18260;DHT22;9256;52.236;5.712;2023-05-29T00:39:25;9.70;99.90
18260;DHT22;9256;52.236;5.712;2023-05-29T00:41:52;9.70;99.90
18260;DHT22;9256;52.236;5.712;2023-05-29T00:44:19;9.70;99.90
18260;DHT22;9256;52.236;5.712;2023-05-29T00:46:49;9.60;99.90
18260;DHT22;9256;52.236;5.712;2023-05-29T00:49:18;9.60;99.90
18260;DHT22;9256;52.236;5.712;2023-05-29T00:51:45;9.60;99.90
18260;DHT22;9256;52.236;5.712;2023-05-29T00:54:17;9.60;99.90
18260;DHT22;9256;52.236;5.712;2023-05-29T00:56:44;9.50;99.90
18260;DHT22;9256;52.236;5.712;2023-05-29T00:59:11;9.50;99.90
18260;DHT22;9256;52.236;5.712;2023-05-29T01:01:39;9.50;99.90
18260;DHT22;9256;52.236;5.712;2023-05-29T01:04:09;9.60;99.90
18260;DHT22;9256;52.236;5.712;2023-05-29T01:06:38;9.40;99.90
18260;DHT22;9256;52.236;5.712;2023-05-29T01:09:06;9.30;99.90
18260;DHT22;9256;52.236;5.712;2023-05-29T01:11:41;9.10;99.90
18260;DHT22;9256;52.236;5.712;2023-05-29T01:14:16;9.20;99.90
18260;DHT22;9256;52.236;5.712;2023-05-29T01:16:48;9.20;99.90
18260;DHT22;9256;52.236;5.712;2023-05-29T01:19:28;9.20;99.90
18260;DHT22;9256;52.236;5.712;2023-05-29T01:22:12;9.30;99.90
18260;DHT22;9256;52.236;5.712;2023-05-29T01:24:49;9.10;99.90
18260;DHT22;9256;52.236;5.712;2023-05-29T01:27:19;9.10;99.90
18260;DHT22;9256;52.236;5.712;2023-05-29T01:29:49;9.00;99.90
18260;DHT22;9256;52.236;5.712;2023-05-29T01:32:17;9.00;99.90
18260;DHT22;9256;52.236;5.712;2023-05-29T01:34:45;8.90;99.90
18260;DHT22;9256;52.236;5.712;2023-05-29T01:37:12;8.90;99.90
18260;DHT22;9256;52.236;5.712;2023-05-29T01:39:39;8.80;99.90
18260;DHT22;9256;52.236;5.712;2023-05-29T01:42:06;8.80;99.90
18260;DHT22;9256;52.236;5.712;2023-05-29T01:44:35;8.90;99.90
18260;DHT22;9256;52.236;5.712;2023-05-29T01:47:03;8.90;99.90
18260;DHT22;9256;52.236;5.712;2023-05-29T01:49:31;8.80;99.90
18260;DHT22;9256;52.236;5.712;2023-05-29T01:51:58;8.80;99.90
18260;DHT22;9256;52.236;5.712;2023-05-29T01:54:25;8.90;99.90
18260;DHT22;9256;52.236;5.712;2023-05-29T01:56:52;8.90;99.90
18260;DHT22;9256;52.236;5.712;2023-05-29T01:59:19;8.70;99.90
18260;DHT22;9256;52.236;5.712;2023-05-29T02:01:49;8.70;99.90
18260;DHT22;9256;52.236;5.712;2023-05-29T02:04:16;8.70;99.90
18260;DHT22;9256;52.236;5.712;2023-05-29T02:06:43;8.70;99.90
18260;DHT22;9256;52.236;5.712;2023-05-29T02:09:10;8.70;99.90
18260;DHT22;9256;52.236;5.712;2023-05-29T02:11:37;8.70;99.90
18260;DHT22;9256;52.236;5.712;2023-05-29T02:14:10;8.70;99.90
18260;DHT22;9256;52.236;5.712;2023-05-29T02:16:37;8.70;99.90
18260;DHT22;9256;52.236;5.712;2023-05-29T02:19:07;8.70;99.90
18260;DHT22;9256;52.236;5.712;2023-05-29T02:21:37;8.60;99.90
18260;DHT22;9256;52.236;5.712;2023-05-29T02:24:05;8.60;99.90
18260;DHT22;9256;52.236;5.712;2023-05-29T02:26:32;8.60;99.90
18260;DHT22;9256;52.236;5.712;2023-05-29T02:28:59;8.50;99.90
18260;DHT22;9256;52.236;5.712;2023-05-29T02:31:26;8.60;99.90
18260;DHT22;9256;52.236;5.712;2023-05-29T02:33:53;8.50;99.90
18260;DHT22;9256;52.236;5.712;2023-05-29T02:36:21;8.50;99.90
18260;DHT22;9256;52.236;5.712;2023-05-29T02:38:48;8.50;99.90
18260;DHT22;9256;52.236;5.712;2023-05-29T02:41:15;8.40;99.90
18260;DHT22;9256;52.236;5.712;2023-05-29T02:43:42;8.40;99.90
18260;DHT22;9256;52.236;5.712;2023-05-29T02:46:09;8.40;99.90
18260;DHT22;9256;52.236;5.712;2023-05-29T02:48:36;8.40;99.90
18260;DHT22;9256;52.236;5.712;2023-05-29T02:51:03;8.40;99.90
18260;DHT22;9256;52.236;5.712;2023-05-29T02:53:31;8.40;99.90
18260;DHT22;9256;52.236;5.712;2023-05-29T02:55:58;8.40;99.90
18260;DHT22;9256;52.236;5.712;2023-05-29T02:58:25;8.50;99.90
18260;DHT22;9256;52.236;5.712;2023-05-29T03:00:53;8.40;99.90
18260;DHT22;9256;52.236;5.712;2023-05-29T03:03:20;8.20;99.90
18260;DHT22;9256;52.236;5.712;2023-05-29T03:05:46;8.20;99.90
18260;DHT22;9256;52.236;5.712;2023-05-29T03:08:13;8.20;99.90
18260;DHT22;9256;52.236;5.712;2023-05-29T03:10:42;8.20;99.90
18260;DHT22;9256;52.236;5.712;2023-05-29T03:13:09;8.20;99.90
18260;DHT22;9256;52.236;5.712;2023-05-29T03:15:36;8.20;99.90
18260;DHT22;9256;52.236;5.712;2023-05-29T03:18:03;8.20;99.90
18260;DHT22;9256;52.236;5.712;2023-05-29T03:20:30;8.00;99.90
18260;DHT22;9256;52.236;5.712;2023-05-29T03:22:57;8.00;99.90
18260;DHT22;9256;52.236;5.712;2023-05-29T03:25:24;8.00;99.90
18260;DHT22;9256;52.236;5.712;2023-05-29T03:27:52;8.10;99.90
18260;DHT22;9256;52.236;5.712;2023-05-29T03:30:19;8.10;99.90
18260;DHT22;9256;52.236;5.712;2023-05-29T03:32:46;8.00;99.90
18260;DHT22;9256;52.236;5.712;2023-05-29T03:35:13;8.00;99.90
18260;DHT22;9256;52.236;5.712;2023-05-29T03:37:40;8.00;99.90
18260;DHT22;9256;52.236;5.712;2023-05-29T03:40:08;8.00;99.90
18260;DHT22;9256;52.236;5.712;2023-05-29T03:42:35;8.10;99.90
18260;DHT22;9256;52.236;5.712;2023-05-29T03:45:03;8.10;99.90
18260;DHT22;9256;52.236;5.712;2023-05-29T03:47:30;8.10;99.90
18260;DHT22;9256;52.236;5.712;2023-05-29T03:49:57;8.00;99.90
18260;DHT22;9256;52.236;5.712;2023-05-29T03:52:24;8.10;99.90
18260;DHT22;9256;52.236;5.712;2023-05-29T03:54:51;8.10;99.90
18260;DHT22;9256;52.236;5.712;2023-05-29T03:57:18;8.10;99.90
18260;DHT22;9256;52.236;5.712;2023-05-29T03:59:45;8.00;99.90
18260;DHT22;9256;52.236;5.712;2023-05-29T04:02:13;8.00;99.90
18260;DHT22;9256;52.236;5.712;2023-05-29T04:04:40;8.10;99.90
18260;DHT22;9256;52.236;5.712;2023-05-29T04:07:07;8.00;99.90
18260;DHT22;9256;52.236;5.712;2023-05-29T04:09:34;8.10;99.90
18260;DHT22;9256;52.236;5.712;2023-05-29T04:12:01;8.10;99.90
18260;DHT22;9256;52.236;5.712;2023-05-29T04:14:28;8.10;99.90
18260;DHT22;9256;52.236;5.712;2023-05-29T04:16:55;8.00;99.90
18260;DHT22;9256;52.236;5.712;2023-05-29T04:19:23;8.10;99.90
18260;DHT22;9256;52.236;5.712;2023-05-29T04:21:51;8.10;99.90
18260;DHT22;9256;52.236;5.712;2023-05-29T04:24:17;8.20;99.90
18260;DHT22;9256;52.236;5.712;2023-05-29T04:26:44;8.10;99.90
18260;DHT22;9256;52.236;5.712;2023-05-29T04:29:12;8.00;99.90
18260;DHT22;9256;52.236;5.712;2023-05-29T04:31:39;8.00;99.90
18260;DHT22;9256;52.236;5.712;2023-05-29T04:34:07;8.20;99.90
18260;DHT22;9256;52.236;5.712;2023-05-29T04:36:36;8.20;99.90
18260;DHT22;9256;52.236;5.712;2023-05-29T04:39:04;8.20;99.90
18260;DHT22;9256;52.236;5.712;2023-05-29T04:41:31;8.20;99.90
18260;DHT22;9256;52.236;5.712;2023-05-29T04:43:58;8.10;99.90
18260;DHT22;9256;52.236;5.712;2023-05-29T04:46:25;8.20;99.90
18260;DHT22;9256;52.236;5.712;2023-05-29T04:48:53;8.30;99.90
18260;DHT22;9256;52.236;5.712;2023-05-29T04:51:19;8.30;99.90
18260;DHT22;9256;52.236;5.712;2023-05-29T04:53:49;8.30;99.90
18260;DHT22;9256;52.236;5.712;2023-05-29T04:56:17;8.40;99.90
18260;DHT22;9256;52.236;5.712;2023-05-29T04:58:44;8.50;99.90
18260;DHT22;9256;52.236;5.712;2023-05-29T05:01:11;8.60;99.90
18260;DHT22;9256;52.236;5.712;2023-05-29T05:03:40;8.70;99.90
18260;DHT22;9256;52.236;5.712;2023-05-29T05:06:07;8.80;99.90
18260;DHT22;9256;52.236;5.712;2023-05-29T05:08:34;8.80;99.90
18260;DHT22;9256;52.236;5.712;2023-05-29T05:11:02;9.00;99.90
18260;DHT22;9256;52.236;5.712;2023-05-29T05:13:29;9.00;99.90
18260;DHT22;9256;52.236;5.712;2023-05-29T05:15:56;9.10;99.90
18260;DHT22;9256;52.236;5.712;2023-05-29T05:18:23;9.10;99.90
18260;DHT22;9256;52.236;5.712;2023-05-29T05:20:50;9.10;99.90
18260;DHT22;9256;52.236;5.712;2023-05-29T05:23:17;9.20;99.90
18260;DHT22;9256;52.236;5.712;2023-05-29T05:25:44;9.40;99.90
18260;DHT22;9256;52.236;5.712;2023-05-29T05:28:12;9.50;99.90
18260;DHT22;9256;52.236;5.712;2023-05-29T05:30:39;9.50;99.90
18260;DHT22;9256;52.236;5.712;2023-05-29T05:33:06;9.60;99.90
18260;DHT22;9256;52.236;5.712;2023-05-29T05:35:33;9.70;99.90
18260;DHT22;9256;52.236;5.712;2023-05-29T05:38:00;9.80;99.90
18260;DHT22;9256;52.236;5.712;2023-05-29T05:40:27;10.10;99.90
18260;DHT22;9256;52.236;5.712;2023-05-29T05:42:54;10.00;99.90
18260;DHT22;9256;52.236;5.712;2023-05-29T05:45:22;10.00;99.90
18260;DHT22;9256;52.236;5.712;2023-05-29T05:47:49;9.90;99.90
18260;DHT22;9256;52.236;5.712;2023-05-29T05:50:16;10.00;99.90
18260;DHT22;9256;52.236;5.712;2023-05-29T05:52:43;10.00;99.90
18260;DHT22;9256;52.236;5.712;2023-05-29T05:55:11;10.20;99.90
18260;DHT22;9256;52.236;5.712;2023-05-29T05:57:38;10.20;99.90
18260;DHT22;9256;52.236;5.712;2023-05-29T06:00:05;10.30;99.90
18260;DHT22;9256;52.236;5.712;2023-05-29T06:02:36;10.40;99.90
18260;DHT22;9256;52.236;5.712;2023-05-29T06:05:03;10.50;99.90
18260;DHT22;9256;52.236;5.712;2023-05-29T06:07:32;10.60;99.90
18260;DHT22;9256;52.236;5.712;2023-05-29T06:09:59;10.70;99.90
18260;DHT22;9256;52.236;5.712;2023-05-29T06:12:26;10.90;99.90
18260;DHT22;9256;52.236;5.712;2023-05-29T06:14:53;11.20;99.90
18260;DHT22;9256;52.236;5.712;2023-05-29T06:17:20;11.00;99.90
18260;DHT22;9256;52.236;5.712;2023-05-29T06:19:48;11.00;99.90
18260;DHT22;9256;52.236;5.712;2023-05-29T06:22:15;11.10;99.90
18260;DHT22;9256;52.236;5.712;2023-05-29T06:24:42;11.20;99.90
18260;DHT22;9256;52.236;5.712;2023-05-29T06:27:09;11.20;99.90
18260;DHT22;9256;52.236;5.712;2023-05-29T06:29:36;11.20;99.90
18260;DHT22;9256;52.236;5.712;2023-05-29T06:32:03;11.00;99.90
18260;DHT22;9256;52.236;5.712;2023-05-29T06:34:31;11.10;99.90
18260;DHT22;9256;52.236;5.712;2023-05-29T06:36:59;11.00;99.90
18260;DHT22;9256;52.236;5.712;2023-05-29T06:39:26;11.20;99.90
18260;DHT22;9256;52.236;5.712;2023-05-29T06:41:53;11.40;99.90
18260;DHT22;9256;52.236;5.712;2023-05-29T06:44:20;11.70;99.90
18260;DHT22;9256;52.236;5.712;2023-05-29T06:46:47;11.80;99.90
18260;DHT22;9256;52.236;5.712;2023-05-29T06:49:14;11.60;99.90
18260;DHT22;9256;52.236;5.712;2023-05-29T06:51:41;11.70;99.90
18260;DHT22;9256;52.236;5.712;2023-05-29T06:54:10;11.90;99.90
18260;DHT22;9256;52.236;5.712;2023-05-29T06:56:36;11.80;99.90
18260;DHT22;9256;52.236;5.712;2023-05-29T06:59:03;11.80;99.90
18260;DHT22;9256;52.236;5.712;2023-05-29T07:01:30;11.90;99.90
18260;DHT22;9256;52.236;5.712;2023-05-29T07:03:57;12.00;99.90
18260;DHT22;9256;52.236;5.712;2023-05-29T07:06:24;12.10;99.90
18260;DHT22;9256;52.236;5.712;2023-05-29T07:08:51;12.10;99.90
18260;DHT22;9256;52.236;5.712;2023-05-29T07:11:19;11.90;99.90
18260;DHT22;9256;52.236;5.712;2023-05-29T07:13:46;12.00;99.90
18260;DHT22;9256;52.236;5.712;2023-05-29T07:16:13;12.30;99.90
18260;DHT22;9256;52.236;5.712;2023-05-29T07:18:40;12.50;99.90
18260;DHT22;9256;52.236;5.712;2023-05-29T07:21:07;12.70;99.90
18260;DHT22;9256;52.236;5.712;2023-05-29T07:23:34;12.70;99.90
18260;DHT22;9256;52.236;5.712;2023-05-29T07:26:01;12.80;99.90
18260;DHT22;9256;52.236;5.712;2023-05-29T07:28:29;12.90;99.90
18260;DHT22;9256;52.236;5.712;2023-05-29T07:30:56;13.10;99.90
18260;DHT22;9256;52.236;5.712;2023-05-29T07:33:23;12.70;99.90
18260;DHT22;9256;52.236;5.712;2023-05-29T07:35:50;12.80;99.90
18260;DHT22;9256;52.236;5.712;2023-05-29T07:38:17;12.80;99.90
18260;DHT22;9256;52.236;5.712;2023-05-29T07:40:44;13.00;99.90
18260;DHT22;9256;52.236;5.712;2023-05-29T07:43:11;13.20;99.90
18260;DHT22;9256;52.236;5.712;2023-05-29T07:45:39;13.50;99.90
18260;DHT22;9256;52.236;5.712;2023-05-29T07:48:06;13.90;99.90
18260;DHT22;9256;52.236;5.712;2023-05-29T07:50:33;13.90;99.90
18260;DHT22;9256;52.236;5.712;2023-05-29T07:53:00;13.90;99.90
18260;DHT22;9256;52.236;5.712;2023-05-29T07:55:27;13.60;99.90
18260;DHT22;9256;52.236;5.712;2023-05-29T07:57:54;13.50;99.90
18260;DHT22;9256;52.236;5.712;2023-05-29T08:00:21;13.40;99.90
18260;DHT22;9256;52.236;5.712;2023-05-29T08:02:50;13.50;99.90
18260;DHT22;9256;52.236;5.712;2023-05-29T08:05:17;13.50;99.90
18260;DHT22;9256;52.236;5.712;2023-05-29T08:07:44;13.70;99.90
18260;DHT22;9256;52.236;5.712;2023-05-29T08:10:13;13.80;99.90
18260;DHT22;9256;52.236;5.712;2023-05-29T08:12:40;13.90;99.90
18260;DHT22;9256;52.236;5.712;2023-05-29T08:15:08;14.30;99.90
18260;DHT22;9256;52.236;5.712;2023-05-29T08:17:34;14.50;99.90
18260;DHT22;9256;52.236;5.712;2023-05-29T08:20:03;14.50;99.90
18260;DHT22;9256;52.236;5.712;2023-05-29T08:24:59;14.50;99.90
18260;DHT22;9256;52.236;5.712;2023-05-29T08:27:26;14.20;99.90
18260;DHT22;9256;52.236;5.712;2023-05-29T08:29:53;14.20;99.90
18260;DHT22;9256;52.236;5.712;2023-05-29T08:32:21;14.40;99.90
18260;DHT22;9256;52.236;5.712;2023-05-29T08:34:48;14.30;99.90
18260;DHT22;9256;52.236;5.712;2023-05-29T08:37:16;14.30;99.90
18260;DHT22;9256;52.236;5.712;2023-05-29T08:39:44;14.30;99.90
18260;DHT22;9256;52.236;5.712;2023-05-29T08:42:13;14.60;99.90
18260;DHT22;9256;52.236;5.712;2023-05-29T08:44:40;14.70;99.90
18260;DHT22;9256;52.236;5.712;2023-05-29T08:47:07;14.90;99.90
18260;DHT22;9256;52.236;5.712;2023-05-29T08:49:41;14.70;99.90
18260;DHT22;9256;52.236;5.712;2023-05-29T08:52:11;14.70;99.90
18260;DHT22;9256;52.236;5.712;2023-05-29T08:54:42;14.90;99.90
18260;DHT22;9256;52.236;5.712;2023-05-29T08:57:09;14.80;99.90
18260;DHT22;9256;52.236;5.712;2023-05-29T08:59:40;14.80;99.90
18260;DHT22;9256;52.236;5.712;2023-05-29T09:02:10;14.50;99.90
18260;DHT22;9256;52.236;5.712;2023-05-29T09:04:38;14.60;99.90
18260;DHT22;9256;52.236;5.712;2023-05-29T09:07:05;14.50;99.90
18260;DHT22;9256;52.236;5.712;2023-05-29T09:09:34;14.70;99.90
18260;DHT22;9256;52.236;5.712;2023-05-29T09:12:03;14.80;99.90
18260;DHT22;9256;52.236;5.712;2023-05-29T09:14:34;14.60;99.90
18260;DHT22;9256;52.236;5.712;2023-05-29T09:17:02;14.90;99.90
18260;DHT22;9256;52.236;5.712;2023-05-29T09:19:29;15.00;99.90
18260;DHT22;9256;52.236;5.712;2023-05-29T09:22:03;15.20;99.90
18260;DHT22;9256;52.236;5.712;2023-05-29T09:24:32;15.70;99.90
18260;DHT22;9256;52.236;5.712;2023-05-29T09:26:59;15.40;99.90
18260;DHT22;9256;52.236;5.712;2023-05-29T09:29:31;15.30;99.90
18260;DHT22;9256;52.236;5.712;2023-05-29T09:31:58;15.80;99.90
18260;DHT22;9256;52.236;5.712;2023-05-29T09:34:26;16.20;99.90
18260;DHT22;9256;52.236;5.712;2023-05-29T09:36:53;15.90;99.90
18260;DHT22;9256;52.236;5.712;2023-05-29T09:39:22;15.70;99.90
18260;DHT22;9256;52.236;5.712;2023-05-29T09:41:49;15.70;99.90
18260;DHT22;9256;52.236;5.712;2023-05-29T09:44:16;16.00;99.90
18260;DHT22;9256;52.236;5.712;2023-05-29T09:46:44;16.20;99.90
18260;DHT22;9256;52.236;5.712;2023-05-29T09:49:15;16.60;99.90
18260;DHT22;9256;52.236;5.712;2023-05-29T09:51:42;16.10;99.90
18260;DHT22;9256;52.236;5.712;2023-05-29T09:54:14;16.30;99.90
18260;DHT22;9256;52.236;5.712;2023-05-29T09:56:43;16.40;99.90
18260;DHT22;9256;52.236;5.712;2023-05-29T09:59:12;16.20;99.90
18260;DHT22;9256;52.236;5.712;2023-05-29T10:01:40;16.80;99.90
18260;DHT22;9256;52.236;5.712;2023-05-29T10:04:11;17.00;99.90
18260;DHT22;9256;52.236;5.712;2023-05-29T10:06:43;16.80;99.90
18260;DHT22;9256;52.236;5.712;2023-05-29T10:09:12;16.80;99.90
18260;DHT22;9256;52.236;5.712;2023-05-29T10:11:42;16.70;99.90
18260;DHT22;9256;52.236;5.712;2023-05-29T10:14:16;16.90;99.90
18260;DHT22;9256;52.236;5.712;2023-05-29T10:16:46;16.80;99.90
18260;DHT22;9256;52.236;5.712;2023-05-29T10:19:18;16.40;99.90
18260;DHT22;9256;52.236;5.712;2023-05-29T10:21:48;16.20;99.90
18260;DHT22;9256;52.236;5.712;2023-05-29T10:24:16;16.10;99.90
18260;DHT22;9256;52.236;5.712;2023-05-29T10:26:47;16.60;99.90
18260;DHT22;9256;52.236;5.712;2023-05-29T10:29:26;16.80;99.90
18260;DHT22;9256;52.236;5.712;2023-05-29T10:32:04;16.80;99.90
18260;DHT22;9256;52.236;5.712;2023-05-29T10:34:41;17.50;99.90
18260;DHT22;9256;52.236;5.712;2023-05-29T10:37:18;17.80;99.90
18260;DHT22;9256;52.236;5.712;2023-05-29T10:39:48;17.50;99.90
18260;DHT22;9256;52.236;5.712;2023-05-29T10:42:45;17.40;99.90
18260;DHT22;9256;52.236;5.712;2023-05-29T10:45:49;17.20;99.90
18260;DHT22;9256;52.236;5.712;2023-05-29T10:48:46;17.60;99.90
18260;DHT22;9256;52.236;5.712;2023-05-29T10:51:26;17.70;99.90
18260;DHT22;9256;52.236;5.712;2023-05-29T10:53:54;17.90;99.90
18260;DHT22;9256;52.236;5.712;2023-05-29T10:56:22;17.70;99.90
18260;DHT22;9256;52.236;5.712;2023-05-29T10:58:57;18.00;99.90
18260;DHT22;9256;52.236;5.712;2023-05-29T11:01:24;18.10;99.90
18260;DHT22;9256;52.236;5.712;2023-05-29T11:03:56;17.90;99.90
18260;DHT22;9256;52.236;5.712;2023-05-29T11:06:44;17.90;99.90
18260;DHT22;9256;52.236;5.712;2023-05-29T11:09:26;18.00;99.90
18260;DHT22;9256;52.236;5.712;2023-05-29T11:12:15;18.50;99.90
18260;DHT22;9256;52.236;5.712;2023-05-29T11:14:55;19.20;99.90
18260;DHT22;9256;52.236;5.712;2023-05-29T11:17:29;19.10;99.90
18260;DHT22;9256;52.236;5.712;2023-05-29T11:19:56;18.90;99.90
18260;DHT22;9256;52.236;5.712;2023-05-29T11:22:30;18.70;99.90
18260;DHT22;9256;52.236;5.712;2023-05-29T11:24:59;18.90;99.90
18260;DHT22;9256;52.236;5.712;2023-05-29T11:27:27;18.80;99.90
18260;DHT22;9256;52.236;5.712;2023-05-29T11:29:55;18.80;99.90
18260;DHT22;9256;52.236;5.712;2023-05-29T11:32:27;18.90;99.90
18260;DHT22;9256;52.236;5.712;2023-05-29T11:34:56;18.90;99.90
18260;DHT22;9256;52.236;5.712;2023-05-29T11:37:25;19.00;99.90
18260;DHT22;9256;52.236;5.712;2023-05-29T11:39:53;18.70;99.90
18260;DHT22;9256;52.236;5.712;2023-05-29T11:42:20;18.60;99.90
18260;DHT22;9256;52.236;5.712;2023-05-29T11:44:47;18.50;99.90
18260;DHT22;9256;52.236;5.712;2023-05-29T11:47:14;19.00;99.90
18260;DHT22;9256;52.236;5.712;2023-05-29T11:49:41;19.10;99.90
18260;DHT22;9256;52.236;5.712;2023-05-29T11:52:08;19.60;99.90
18260;DHT22;9256;52.236;5.712;2023-05-29T11:54:36;19.10;99.90
18260;DHT22;9256;52.236;5.712;2023-05-29T11:57:05;18.90;99.90
18260;DHT22;9256;52.236;5.712;2023-05-29T11:59:32;18.90;99.90
18260;DHT22;9256;52.236;5.712;2023-05-29T12:01:59;18.80;99.90
18260;DHT22;9256;52.236;5.712;2023-05-29T12:04:28;19.00;99.90
18260;DHT22;9256;52.236;5.712;2023-05-29T12:06:55;18.80;99.90
18260;DHT22;9256;52.236;5.712;2023-05-29T12:09:26;19.10;99.90
18260;DHT22;9256;52.236;5.712;2023-05-29T12:11:54;19.00;99.90
18260;DHT22;9256;52.236;5.712;2023-05-29T12:14:22;19.10;99.90
18260;DHT22;9256;52.236;5.712;2023-05-29T12:16:49;19.20;99.90
18260;DHT22;9256;52.236;5.712;2023-05-29T12:19:17;19.40;99.90
18260;DHT22;9256;52.236;5.712;2023-05-29T12:21:44;19.40;99.90
18260;DHT22;9256;52.236;5.712;2023-05-29T12:24:11;18.90;99.90
18260;DHT22;9256;52.236;5.712;2023-05-29T12:26:39;19.30;99.90
18260;DHT22;9256;52.236;5.712;2023-05-29T12:29:06;19.40;99.90
18260;DHT22;9256;52.236;5.712;2023-05-29T12:31:34;19.60;99.90
18260;DHT22;9256;52.236;5.712;2023-05-29T12:34:06;19.90;99.90
18260;DHT22;9256;52.236;5.712;2023-05-29T12:36:34;19.50;99.90
18260;DHT22;9256;52.236;5.712;2023-05-29T12:39:05;19.10;99.90
18260;DHT22;9256;52.236;5.712;2023-05-29T12:41:34;19.70;99.90
18260;DHT22;9256;52.236;5.712;2023-05-29T12:44:03;19.90;99.90
18260;DHT22;9256;52.236;5.712;2023-05-29T12:46:37;20.10;99.90
18260;DHT22;9256;52.236;5.712;2023-05-29T12:49:11;19.70;99.90
18260;DHT22;9256;52.236;5.712;2023-05-29T12:51:40;19.70;99.90
18260;DHT22;9256;52.236;5.712;2023-05-29T12:54:09;20.80;99.90
18260;DHT22;9256;52.236;5.712;2023-05-29T12:56:35;20.80;99.90
18260;DHT22;9256;52.236;5.712;2023-05-29T12:59:05;19.90;99.90
18260;DHT22;9256;52.236;5.712;2023-05-29T13:01:32;19.90;99.90
18260;DHT22;9256;52.236;5.712;2023-05-29T13:04:00;20.10;99.90
18260;DHT22;9256;52.236;5.712;2023-05-29T13:06:27;20.10;99.90
18260;DHT22;9256;52.236;5.712;2023-05-29T13:08:54;20.20;99.90
18260;DHT22;9256;52.236;5.712;2023-05-29T13:11:21;19.50;99.90
18260;DHT22;9256;52.236;5.712;2023-05-29T13:13:48;19.90;99.90
18260;DHT22;9256;52.236;5.712;2023-05-29T13:16:15;20.10;99.90
18260;DHT22;9256;52.236;5.712;2023-05-29T13:18:43;20.50;99.90
18260;DHT22;9256;52.236;5.712;2023-05-29T13:21:11;20.70;99.90
18260;DHT22;9256;52.236;5.712;2023-05-29T13:23:38;21.20;99.90
18260;DHT22;9256;52.236;5.712;2023-05-29T13:26:05;20.50;99.90
18260;DHT22;9256;52.236;5.712;2023-05-29T13:28:32;21.00;99.90
18260;DHT22;9256;52.236;5.712;2023-05-29T13:30:59;20.60;99.90
18260;DHT22;9256;52.236;5.712;2023-05-29T13:33:26;20.60;99.90
18260;DHT22;9256;52.236;5.712;2023-05-29T13:35:53;21.30;99.90
18260;DHT22;9256;52.236;5.712;2023-05-29T13:38:21;21.90;99.90
18260;DHT22;9256;52.236;5.712;2023-05-29T13:40:48;21.30;99.90
18260;DHT22;9256;52.236;5.712;2023-05-29T13:43:15;21.60;99.90
18260;DHT22;9256;52.236;5.712;2023-05-29T13:45:42;21.20;99.90
18260;DHT22;9256;52.236;5.712;2023-05-29T13:48:09;21.50;99.90
18260;DHT22;9256;52.236;5.712;2023-05-29T13:50:36;22.50;99.90
18260;DHT22;9256;52.236;5.712;2023-05-29T13:53:03;21.70;99.90
18260;DHT22;9256;52.236;5.712;2023-05-29T13:55:31;21.00;99.90
18260;DHT22;9256;52.236;5.712;2023-05-29T13:57:58;20.20;99.90
18260;DHT22;9256;52.236;5.712;2023-05-29T14:00:25;21.30;99.90
18260;DHT22;9256;52.236;5.712;2023-05-29T14:02:52;22.10;99.90
18260;DHT22;9256;52.236;5.712;2023-05-29T14:05:19;22.60;99.90
18260;DHT22;9256;52.236;5.712;2023-05-29T14:07:46;23.40;99.90
18260;DHT22;9256;52.236;5.712;2023-05-29T14:10:13;22.90;99.90
18260;DHT22;9256;52.236;5.712;2023-05-29T14:12:41;22.80;99.90
18260;DHT22;9256;52.236;5.712;2023-05-29T14:15:09;23.30;99.90
18260;DHT22;9256;52.236;5.712;2023-05-29T14:17:37;22.20;99.90
18260;DHT22;9256;52.236;5.712;2023-05-29T14:20:04;22.40;99.90
18260;DHT22;9256;52.236;5.712;2023-05-29T14:22:34;22.50;99.90
18260;DHT22;9256;52.236;5.712;2023-05-29T14:25:02;22.50;99.90
18260;DHT22;9256;52.236;5.712;2023-05-29T14:27:30;21.70;99.90
18260;DHT22;9256;52.236;5.712;2023-05-29T14:29:58;21.50;99.90
18260;DHT22;9256;52.236;5.712;2023-05-29T14:32:25;21.60;99.90
18260;DHT22;9256;52.236;5.712;2023-05-29T14:34:52;21.80;99.90
18260;DHT22;9256;52.236;5.712;2023-05-29T14:37:19;21.10;99.90
18260;DHT22;9256;52.236;5.712;2023-05-29T14:39:46;21.20;99.90
18260;DHT22;9256;52.236;5.712;2023-05-29T14:42:13;20.80;99.90
18260;DHT22;9256;52.236;5.712;2023-05-29T14:44:41;20.80;99.90
18260;DHT22;9256;52.236;5.712;2023-05-29T14:47:09;20.60;99.90
18260;DHT22;9256;52.236;5.712;2023-05-29T14:49:36;20.00;99.90
18260;DHT22;9256;52.236;5.712;2023-05-29T14:52:04;20.10;99.90
18260;DHT22;9256;52.236;5.712;2023-05-29T14:54:31;19.70;99.90
18260;DHT22;9256;52.236;5.712;2023-05-29T14:56:58;19.30;99.90
18260;DHT22;9256;52.236;5.712;2023-05-29T14:59:25;19.40;99.90
18260;DHT22;9256;52.236;5.712;2023-05-29T15:01:52;19.30;99.90
18260;DHT22;9256;52.236;5.712;2023-05-29T15:04:21;19.30;99.90
18260;DHT22;9256;52.236;5.712;2023-05-29T15:06:48;19.70;99.90
18260;DHT22;9256;52.236;5.712;2023-05-29T15:09:15;19.70;99.90
18260;DHT22;9256;52.236;5.712;2023-05-29T15:11:42;19.80;99.90
18260;DHT22;9256;52.236;5.712;2023-05-29T15:14:09;19.90;99.90
18260;DHT22;9256;52.236;5.712;2023-05-29T15:16:36;19.70;99.90
18260;DHT22;9256;52.236;5.712;2023-05-29T15:19:03;19.40;99.90
18260;DHT22;9256;52.236;5.712;2023-05-29T15:21:32;19.70;99.90
18260;DHT22;9256;52.236;5.712;2023-05-29T15:23:59;19.50;99.90
18260;DHT22;9256;52.236;5.712;2023-05-29T15:26:25;19.50;99.90
18260;DHT22;9256;52.236;5.712;2023-05-29T15:28:53;20.00;99.90
18260;DHT22;9256;52.236;5.712;2023-05-29T15:31:20;20.40;99.90
18260;DHT22;9256;52.236;5.712;2023-05-29T15:33:48;21.10;99.90
18260;DHT22;9256;52.236;5.712;2023-05-29T15:36:15;20.80;99.90
18260;DHT22;9256;52.236;5.712;2023-05-29T15:38:46;20.10;99.90
18260;DHT22;9256;52.236;5.712;2023-05-29T15:41:12;19.70;99.90
18260;DHT22;9256;52.236;5.712;2023-05-29T15:43:40;18.80;99.90
18260;DHT22;9256;52.236;5.712;2023-05-29T15:46:07;18.90;99.90
18260;DHT22;9256;52.236;5.712;2023-05-29T15:48:34;18.70;99.90
18260;DHT22;9256;52.236;5.712;2023-05-29T15:51:01;19.00;99.90
18260;DHT22;9256;52.236;5.712;2023-05-29T15:53:28;18.90;99.90
18260;DHT22;9256;52.236;5.712;2023-05-29T15:55:57;18.90;99.90
18260;DHT22;9256;52.236;5.712;2023-05-29T15:58:24;18.20;99.90
18260;DHT22;9256;52.236;5.712;2023-05-29T16:00:51;18.00;99.90